sensor_id;sensor_type;location;lat;lon;timestamp;P1;durP1;ratioP1;P2;durP2;ratioP2
66593;SDS011;53450;42.584;23.366;2023-08-31T00:01:06;8.80;;;2.45;;
66593;SDS011;53450;42.584;23.366;2023-08-31T00:03:32;4.55;;;2.17;;
66593;SDS011;53450;42.584;23.366;2023-08-31T00:05:57;3.83;;;2.75;;
66593;SDS011;53450;42.584;23.366;2023-08-31T00:08:26;6.03;;;2.20;;
66593;SDS011;53450;42.584;23.366;2023-08-31T00:10:58;5.10;;;2.60;;
66593;SDS011;53450;42.584;23.366;2023-08-31T00:13:25;5.38;;;2.20;;
66593;SDS011;53450;42.584;23.366;2023-08-31T00:15:55;2.97;;;2.17;;
66593;SDS011;53450;42.584;23.366;2023-08-31T00:18:22;4.57;;;2.35;;
66593;SDS011;53450;42.584;23.366;2023-08-31T00:20:49;3.53;;;2.17;;
66593;SDS011;53450;42.584;23.366;2023-08-31T00:23:15;7.38;;;2.55;;
66593;SDS011;53450;42.584;23.366;2023-08-31T00:25:44;7.28;;;2.28;;
66593;SDS011;53450;42.584;23.366;2023-08-31T00:28:35;5.45;;;2.40;;
66593;SDS011;53450;42.584;23.366;2023-08-31T00:31:01;4.05;;;2.35;;
66593;SDS011;53450;42.584;23.366;2023-08-31T00:33:29;4.32;;;2.45;;
66593;SDS011;53450;42.584;23.366;2023-08-31T00:35:58;7.60;;;2.22;;
66593;SDS011;53450;42.584;23.366;2023-08-31T00:38:28;6.75;;;2.58;;
66593;SDS011;53450;42.584;23.366;2023-08-31T00:40:57;4.28;;;2.38;;
66593;SDS011;53450;42.584;23.366;2023-08-31T00:43:22;2.33;;;2.05;;
66593;SDS011;53450;42.584;23.366;2023-08-31T00:45:49;4.22;;;2.17;;
66593;SDS011;53450;42.584;23.366;2023-08-31T00:48:50;8.52;;;2.47;;
66593;SDS011;53450;42.584;23.366;2023-08-31T00:51:15;7.55;;;2.65;;
66593;SDS011;53450;42.584;23.366;2023-08-31T00:53:42;6.45;;;2.50;;
66593;SDS011;53450;42.584;23.366;2023-08-31T00:56:33;9.57;;;2.05;;
66593;SDS011;53450;42.584;23.366;2023-08-31T00:59:25;4.18;;;2.63;;
66593;SDS011;53450;42.584;23.366;2023-08-31T01:05:11;3.58;;;2.08;;
66593;SDS011;53450;42.584;23.366;2023-08-31T01:07:29;5.80;;;2.17;;
66593;SDS011;53450;42.584;23.366;2023-08-31T01:13:00;5.95;;;2.25;;
66593;SDS011;53450;42.584;23.366;2023-08-31T01:15:30;3.97;;;1.98;;
66593;SDS011;53450;42.584;23.366;2023-08-31T01:17:57;4.10;;;2.17;;
66593;SDS011;53450;42.584;23.366;2023-08-31T01:23:18;3.28;;;1.60;;
66593;SDS011;53450;42.584;23.366;2023-08-31T01:25:45;6.63;;;2.25;;
66593;SDS011;53450;42.584;23.366;2023-08-31T01:28:13;5.97;;;2.03;;
66593;SDS011;53450;42.584;23.366;2023-08-31T01:30:39;6.10;;;1.75;;
66593;SDS011;53450;42.584;23.366;2023-08-31T01:33:05;8.10;;;2.25;;
66593;SDS011;53450;42.584;23.366;2023-08-31T01:35:33;9.25;;;2.13;;
66593;SDS011;53450;42.584;23.366;2023-08-31T01:38:15;8.48;;;2.03;;
66593;SDS011;53450;42.584;23.366;2023-08-31T01:41:07;4.65;;;2.35;;
66593;SDS011;53450;42.584;23.366;2023-08-31T01:43:35;5.25;;;2.17;;
66593;SDS011;53450;42.584;23.366;2023-08-31T01:46:02;10.95;;;2.55;;
66593;SDS011;53450;42.584;23.366;2023-08-31T01:48:28;8.65;;;2.08;;
66593;SDS011;53450;42.584;23.366;2023-08-31T01:50:53;3.00;;;2.00;;
66593;SDS011;53450;42.584;23.366;2023-08-31T01:53:19;3.03;;;1.92;;
66593;SDS011;53450;42.584;23.366;2023-08-31T01:55:45;6.10;;;2.25;;
66593;SDS011;53450;42.584;23.366;2023-08-31T01:58:13;5.65;;;1.98;;
66593;SDS011;53450;42.584;23.366;2023-08-31T02:00:49;5.72;;;2.20;;
66593;SDS011;53450;42.584;23.366;2023-08-31T02:03:14;4.78;;;1.90;;
66593;SDS011;53450;42.584;23.366;2023-08-31T02:05:49;7.18;;;2.30;;
66593;SDS011;53450;42.584;23.366;2023-08-31T02:08:14;5.18;;;2.17;;
66593;SDS011;53450;42.584;23.366;2023-08-31T02:10:43;5.82;;;2.58;;
66593;SDS011;53450;42.584;23.366;2023-08-31T02:13:09;2.90;;;2.03;;
66593;SDS011;53450;42.584;23.366;2023-08-31T02:15:38;8.38;;;2.30;;
66593;SDS011;53450;42.584;23.366;2023-08-31T02:18:04;6.50;;;2.50;;
66593;SDS011;53450;42.584;23.366;2023-08-31T02:20:30;8.77;;;2.25;;
66593;SDS011;53450;42.584;23.366;2023-08-31T02:22:56;5.50;;;2.45;;
66593;SDS011;53450;42.584;23.366;2023-08-31T02:25:21;4.78;;;2.72;;
66593;SDS011;53450;42.584;23.366;2023-08-31T02:27:56;5.30;;;2.35;;
66593;SDS011;53450;42.584;23.366;2023-08-31T02:30:40;3.92;;;2.15;;
66593;SDS011;53450;42.584;23.366;2023-08-31T02:33:05;4.97;;;2.33;;
66593;SDS011;53450;42.584;23.366;2023-08-31T02:35:31;6.57;;;2.33;;
66593;SDS011;53450;42.584;23.366;2023-08-31T02:37:57;8.32;;;2.67;;
66593;SDS011;53450;42.584;23.366;2023-08-31T02:40:23;5.85;;;2.20;;
66593;SDS011;53450;42.584;23.366;2023-08-31T02:42:52;7.78;;;2.10;;
66593;SDS011;53450;42.584;23.366;2023-08-31T02:45:17;7.40;;;2.40;;
66593;SDS011;53450;42.584;23.366;2023-08-31T02:47:43;4.13;;;2.42;;
66593;SDS011;53450;42.584;23.366;2023-08-31T02:50:09;3.75;;;2.35;;
66593;SDS011;53450;42.584;23.366;2023-08-31T02:52:35;4.93;;;2.33;;
66593;SDS011;53450;42.584;23.366;2023-08-31T02:55:00;6.25;;;2.00;;
66593;SDS011;53450;42.584;23.366;2023-08-31T02:59:58;3.78;;;2.20;;
66593;SDS011;53450;42.584;23.366;2023-08-31T03:02:25;6.10;;;2.28;;
66593;SDS011;53450;42.584;23.366;2023-08-31T03:04:50;5.50;;;2.78;;
66593;SDS011;53450;42.584;23.366;2023-08-31T03:07:19;3.85;;;2.45;;
66593;SDS011;53450;42.584;23.366;2023-08-31T03:09:50;5.30;;;2.05;;
66593;SDS011;53450;42.584;23.366;2023-08-31T03:12:16;4.82;;;2.38;;
66593;SDS011;53450;42.584;23.366;2023-08-31T03:14:41;6.30;;;2.03;;
66593;SDS011;53450;42.584;23.366;2023-08-31T03:17:07;3.72;;;2.40;;
66593;SDS011;53450;42.584;23.366;2023-08-31T03:19:33;4.07;;;2.33;;
66593;SDS011;53450;42.584;23.366;2023-08-31T03:21:58;4.32;;;2.28;;
66593;SDS011;53450;42.584;23.366;2023-08-31T03:24:24;4.88;;;2.28;;
66593;SDS011;53450;42.584;23.366;2023-08-31T03:26:50;3.65;;;2.15;;
66593;SDS011;53450;42.584;23.366;2023-08-31T03:29:15;4.38;;;2.28;;
66593;SDS011;53450;42.584;23.366;2023-08-31T03:31:49;6.63;;;2.35;;
66593;SDS011;53450;42.584;23.366;2023-08-31T03:34:41;5.85;;;2.08;;
66593;SDS011;53450;42.584;23.366;2023-08-31T03:37:07;7.10;;;2.25;;
66593;SDS011;53450;42.584;23.366;2023-08-31T03:39:33;6.75;;;2.55;;
66593;SDS011;53450;42.584;23.366;2023-08-31T03:42:25;6.45;;;1.92;;
66593;SDS011;53450;42.584;23.366;2023-08-31T03:44:56;6.57;;;2.30;;
66593;SDS011;53450;42.584;23.366;2023-08-31T03:47:25;4.00;;;2.00;;
66593;SDS011;53450;42.584;23.366;2023-08-31T03:49:56;7.55;;;2.30;;
66593;SDS011;53450;42.584;23.366;2023-08-31T03:52:47;3.10;;;2.17;;
66593;SDS011;53450;42.584;23.366;2023-08-31T03:55:13;3.90;;;2.40;;
66593;SDS011;53450;42.584;23.366;2023-08-31T03:57:40;10.25;;;2.63;;
66593;SDS011;53450;42.584;23.366;2023-08-31T04:00:13;9.07;;;2.55;;
66593;SDS011;53450;42.584;23.366;2023-08-31T04:02:42;8.77;;;2.70;;
66593;SDS011;53450;42.584;23.366;2023-08-31T04:05:10;4.53;;;2.20;;
66593;SDS011;53450;42.584;23.366;2023-08-31T04:07:38;7.88;;;2.50;;
66593;SDS011;53450;42.584;23.366;2023-08-31T04:10:07;6.32;;;2.47;;
66593;SDS011;53450;42.584;23.366;2023-08-31T04:12:33;8.27;;;2.55;;
66593;SDS011;53450;42.584;23.366;2023-08-31T04:14:59;4.28;;;2.30;;
66593;SDS011;53450;42.584;23.366;2023-08-31T04:17:25;5.95;;;2.17;;
66593;SDS011;53450;42.584;23.366;2023-08-31T04:19:51;6.03;;;3.08;;
66593;SDS011;53450;42.584;23.366;2023-08-31T04:22:17;6.35;;;2.45;;
66593;SDS011;53450;42.584;23.366;2023-08-31T04:24:43;6.28;;;2.70;;
66593;SDS011;53450;42.584;23.366;2023-08-31T04:27:34;6.13;;;2.58;;
66593;SDS011;53450;42.584;23.366;2023-08-31T04:30:04;8.68;;;2.40;;
66593;SDS011;53450;42.584;23.366;2023-08-31T04:32:32;5.88;;;2.60;;
66593;SDS011;53450;42.584;23.366;2023-08-31T04:34:57;7.18;;;2.80;;
66593;SDS011;53450;42.584;23.366;2023-08-31T04:37:23;6.60;;;2.75;;
66593;SDS011;53450;42.584;23.366;2023-08-31T04:39:49;6.10;;;2.70;;
66593;SDS011;53450;42.584;23.366;2023-08-31T04:42:14;9.05;;;2.58;;
66593;SDS011;53450;42.584;23.366;2023-08-31T04:44:42;9.23;;;2.90;;
66593;SDS011;53450;42.584;23.366;2023-08-31T04:47:07;8.95;;;2.80;;
66593;SDS011;53450;42.584;23.366;2023-08-31T04:49:35;10.50;;;3.00;;
66593;SDS011;53450;42.584;23.366;2023-08-31T04:52:01;19.70;;;4.07;;
66593;SDS011;53450;42.584;23.366;2023-08-31T04:54:26;7.50;;;3.80;;
66593;SDS011;53450;42.584;23.366;2023-08-31T04:56:52;10.88;;;3.17;;
66593;SDS011;53450;42.584;23.366;2023-08-31T04:59:18;32.35;;;4.20;;
66593;SDS011;53450;42.584;23.366;2023-08-31T05:01:43;10.80;;;3.30;;
66593;SDS011;53450;42.584;23.366;2023-08-31T05:04:09;6.75;;;3.28;;
66593;SDS011;53450;42.584;23.366;2023-08-31T05:06:37;8.65;;;2.80;;
66593;SDS011;53450;42.584;23.366;2023-08-31T05:09:02;5.53;;;2.50;;
66593;SDS011;53450;42.584;23.366;2023-08-31T05:11:28;6.57;;;2.70;;
66593;SDS011;53450;42.584;23.366;2023-08-31T05:13:54;6.22;;;2.53;;
66593;SDS011;53450;42.584;23.366;2023-08-31T05:16:19;6.40;;;3.30;;
66593;SDS011;53450;42.584;23.366;2023-08-31T05:19:10;9.85;;;3.00;;
66593;SDS011;53450;42.584;23.366;2023-08-31T05:22:05;3.33;;;2.38;;
66593;SDS011;53450;42.584;23.366;2023-08-31T05:24:31;6.10;;;2.40;;
66593;SDS011;53450;42.584;23.366;2023-08-31T05:26:56;5.30;;;2.22;;
66593;SDS011;53450;42.584;23.366;2023-08-31T05:29:22;9.93;;;2.65;;
66593;SDS011;53450;42.584;23.366;2023-08-31T05:31:47;7.80;;;2.30;;
66593;SDS011;53450;42.584;23.366;2023-08-31T05:34:16;3.85;;;2.38;;
66593;SDS011;53450;42.584;23.366;2023-08-31T05:36:44;5.15;;;2.25;;
66593;SDS011;53450;42.584;23.366;2023-08-31T05:39:12;6.63;;;2.28;;
66593;SDS011;53450;42.584;23.366;2023-08-31T05:41:41;9.95;;;2.38;;
66593;SDS011;53450;42.584;23.366;2023-08-31T05:44:07;2.90;;;1.98;;
66593;SDS011;53450;42.584;23.366;2023-08-31T05:46:33;13.05;;;2.40;;
66593;SDS011;53450;42.584;23.366;2023-08-31T05:48:59;4.75;;;2.33;;
66593;SDS011;53450;42.584;23.366;2023-08-31T05:51:25;9.35;;;3.08;;
66593;SDS011;53450;42.584;23.366;2023-08-31T05:53:50;8.32;;;2.50;;
66593;SDS011;53450;42.584;23.366;2023-08-31T05:56:16;5.47;;;2.20;;
66593;SDS011;53450;42.584;23.366;2023-08-31T05:58:42;35.38;;;6.03;;
66593;SDS011;53450;42.584;23.366;2023-08-31T06:03:42;3.15;;;2.00;;
66593;SDS011;53450;42.584;23.366;2023-08-31T06:06:07;6.15;;;2.20;;
66593;SDS011;53450;42.584;23.366;2023-08-31T06:08:58;5.65;;;2.00;;
66593;SDS011;53450;42.584;23.366;2023-08-31T06:11:55;6.55;;;2.13;;
66593;SDS011;53450;42.584;23.366;2023-08-31T06:14:46;5.40;;;2.40;;
66593;SDS011;53450;42.584;23.366;2023-08-31T06:17:37;7.13;;;2.30;;
66593;SDS011;53450;42.584;23.366;2023-08-31T06:20:03;4.03;;;1.90;;
66593;SDS011;53450;42.584;23.366;2023-08-31T06:22:30;6.53;;;1.90;;
66593;SDS011;53450;42.584;23.366;2023-08-31T06:24:56;17.55;;;2.35;;
66593;SDS011;53450;42.584;23.366;2023-08-31T06:27:22;7.70;;;2.20;;
66593;SDS011;53450;42.584;23.366;2023-08-31T06:30:12;4.35;;;2.10;;
66593;SDS011;53450;42.584;23.366;2023-08-31T06:33:06;6.15;;;2.38;;
66593;SDS011;53450;42.584;23.366;2023-08-31T06:35:32;4.18;;;1.63;;
66593;SDS011;53450;42.584;23.366;2023-08-31T06:37:57;8.10;;;2.45;;
66593;SDS011;53450;42.584;23.366;2023-08-31T06:40:25;25.02;;;2.47;;
66593;SDS011;53450;42.584;23.366;2023-08-31T06:42:51;4.90;;;1.90;;
66593;SDS011;53450;42.584;23.366;2023-08-31T06:45:16;5.78;;;2.00;;
66593;SDS011;53450;42.584;23.366;2023-08-31T06:47:42;11.88;;;2.65;;
66593;SDS011;53450;42.584;23.366;2023-08-31T06:50:08;9.57;;;2.30;;
66593;SDS011;53450;42.584;23.366;2023-08-31T06:52:34;7.13;;;2.35;;
66593;SDS011;53450;42.584;23.366;2023-08-31T06:55:02;5.82;;;1.98;;
66593;SDS011;53450;42.584;23.366;2023-08-31T06:57:28;5.53;;;2.33;;
66593;SDS011;53450;42.584;23.366;2023-08-31T06:59:54;8.98;;;2.22;;
66593;SDS011;53450;42.584;23.366;2023-08-31T07:02:20;5.55;;;2.30;;
66593;SDS011;53450;42.584;23.366;2023-08-31T07:04:47;14.63;;;2.45;;
66593;SDS011;53450;42.584;23.366;2023-08-31T07:07:14;8.80;;;2.20;;
66593;SDS011;53450;42.584;23.366;2023-08-31T07:09:43;7.20;;;2.22;;
66593;SDS011;53450;42.584;23.366;2023-08-31T07:12:09;4.80;;;2.22;;
66593;SDS011;53450;42.584;23.366;2023-08-31T07:14:35;5.85;;;2.55;;
66593;SDS011;53450;42.584;23.366;2023-08-31T07:17:01;8.73;;;2.65;;
66593;SDS011;53450;42.584;23.366;2023-08-31T07:19:27;3.83;;;2.53;;
66593;SDS011;53450;42.584;23.366;2023-08-31T07:21:52;8.73;;;2.53;;
66593;SDS011;53450;42.584;23.366;2023-08-31T07:24:22;11.25;;;2.65;;
66593;SDS011;53450;42.584;23.366;2023-08-31T07:26:48;9.90;;;2.25;;
66593;SDS011;53450;42.584;23.366;2023-08-31T07:29:14;33.75;;;3.25;;
66593;SDS011;53450;42.584;23.366;2023-08-31T07:31:40;6.93;;;2.40;;
66593;SDS011;53450;42.584;23.366;2023-08-31T07:34:05;10.90;;;2.80;;
66593;SDS011;53450;42.584;23.366;2023-08-31T07:36:31;11.45;;;3.15;;
66593;SDS011;53450;42.584;23.366;2023-08-31T07:39:22;13.40;;;3.50;;
66593;SDS011;53450;42.584;23.366;2023-08-31T07:41:54;7.90;;;2.85;;
66593;SDS011;53450;42.584;23.366;2023-08-31T07:44:20;6.15;;;2.80;;
66593;SDS011;53450;42.584;23.366;2023-08-31T07:46:46;14.13;;;2.80;;
66593;SDS011;53450;42.584;23.366;2023-08-31T07:49:12;4.93;;;2.20;;
66593;SDS011;53450;42.584;23.366;2023-08-31T07:51:37;5.18;;;2.38;;
66593;SDS011;53450;42.584;23.366;2023-08-31T07:54:03;6.75;;;2.53;;
66593;SDS011;53450;42.584;23.366;2023-08-31T07:56:29;9.07;;;2.50;;
66593;SDS011;53450;42.584;23.366;2023-08-31T07:58:55;9.05;;;2.40;;
66593;SDS011;53450;42.584;23.366;2023-08-31T08:01:20;10.77;;;3.00;;
66593;SDS011;53450;42.584;23.366;2023-08-31T08:03:46;8.00;;;2.60;;
66593;SDS011;53450;42.584;23.366;2023-08-31T08:06:12;13.70;;;3.08;;
66593;SDS011;53450;42.584;23.366;2023-08-31T08:08:37;7.93;;;2.72;;
66593;SDS011;53450;42.584;23.366;2023-08-31T08:11:28;21.50;;;4.00;;
66593;SDS011;53450;42.584;23.366;2023-08-31T08:13:54;11.90;;;3.22;;
66593;SDS011;53450;42.584;23.366;2023-08-31T08:16:20;10.63;;;4.03;;
66593;SDS011;53450;42.584;23.366;2023-08-31T08:18:46;8.52;;;3.00;;
66593;SDS011;53450;42.584;23.366;2023-08-31T08:21:11;5.78;;;2.45;;
66593;SDS011;53450;42.584;23.366;2023-08-31T08:23:37;13.90;;;4.22;;
66593;SDS011;53450;42.584;23.366;2023-08-31T08:26:03;10.65;;;2.65;;
66593;SDS011;53450;42.584;23.366;2023-08-31T08:28:28;9.65;;;3.28;;
66593;SDS011;53450;42.584;23.366;2023-08-31T08:30:54;17.95;;;2.97;;
66593;SDS011;53450;42.584;23.366;2023-08-31T08:33:20;19.15;;;3.88;;
66593;SDS011;53450;42.584;23.366;2023-08-31T08:35:46;5.93;;;2.80;;
66593;SDS011;53450;42.584;23.366;2023-08-31T08:38:11;13.13;;;3.35;;
66593;SDS011;53450;42.584;23.366;2023-08-31T08:40:37;10.90;;;4.30;;
66593;SDS011;53450;42.584;23.366;2023-08-31T08:43:06;9.07;;;3.42;;
66593;SDS011;53450;42.584;23.366;2023-08-31T08:45:36;11.88;;;2.65;;
66593;SDS011;53450;42.584;23.366;2023-08-31T08:48:07;5.35;;;3.67;;
66593;SDS011;53450;42.584;23.366;2023-08-31T08:50:35;13.23;;;3.25;;
66593;SDS011;53450;42.584;23.366;2023-08-31T08:53:02;12.13;;;4.10;;
66593;SDS011;53450;42.584;23.366;2023-08-31T08:55:28;9.55;;;4.20;;
66593;SDS011;53450;42.584;23.366;2023-08-31T08:57:55;12.40;;;3.72;;
66593;SDS011;53450;42.584;23.366;2023-08-31T09:00:21;10.65;;;3.50;;
66593;SDS011;53450;42.584;23.366;2023-08-31T09:02:47;6.90;;;3.72;;
66593;SDS011;53450;42.584;23.366;2023-08-31T09:05:12;8.63;;;4.80;;
66593;SDS011;53450;42.584;23.366;2023-08-31T09:07:38;6.43;;;3.95;;
66593;SDS011;53450;42.584;23.366;2023-08-31T09:13:09;8.30;;;4.60;;
66593;SDS011;53450;42.584;23.366;2023-08-31T09:18:15;5.97;;;4.05;;
66593;SDS011;53450;42.584;23.366;2023-08-31T09:20:45;6.40;;;4.25;;
66593;SDS011;53450;42.584;23.366;2023-08-31T09:23:12;7.03;;;4.63;;
66593;SDS011;53450;42.584;23.366;2023-08-31T09:26:06;7.95;;;4.32;;
66593;SDS011;53450;42.584;23.366;2023-08-31T09:28:35;5.03;;;3.97;;
66593;SDS011;53450;42.584;23.366;2023-08-31T09:31:06;7.45;;;3.97;;
66593;SDS011;53450;42.584;23.366;2023-08-31T09:33:32;5.88;;;3.90;;
66593;SDS011;53450;42.584;23.366;2023-08-31T09:36:06;7.85;;;3.80;;
66593;SDS011;53450;42.584;23.366;2023-08-31T09:38:33;11.70;;;4.10;;
66593;SDS011;53450;42.584;23.366;2023-08-31T09:41:06;16.63;;;4.50;;
66593;SDS011;53450;42.584;23.366;2023-08-31T09:43:32;9.00;;;4.20;;
66593;SDS011;53450;42.584;23.366;2023-08-31T09:45:58;8.38;;;4.03;;
66593;SDS011;53450;42.584;23.366;2023-08-31T09:48:24;6.95;;;3.70;;
66593;SDS011;53450;42.584;23.366;2023-08-31T09:51:17;6.30;;;3.63;;
66593;SDS011;53450;42.584;23.366;2023-08-31T09:53:48;5.15;;;3.67;;
66593;SDS011;53450;42.584;23.366;2023-08-31T09:56:18;8.75;;;3.75;;
66593;SDS011;53450;42.584;23.366;2023-08-31T09:58:47;8.77;;;3.85;;
66593;SDS011;53450;42.584;23.366;2023-08-31T10:01:13;12.75;;;3.95;;
66593;SDS011;53450;42.584;23.366;2023-08-31T10:03:39;4.78;;;3.70;;
66593;SDS011;53450;42.584;23.366;2023-08-31T10:06:07;7.60;;;3.88;;
66593;SDS011;53450;42.584;23.366;2023-08-31T10:08:34;5.15;;;4.07;;
66593;SDS011;53450;42.584;23.366;2023-08-31T10:11:00;4.88;;;4.00;;
66593;SDS011;53450;42.584;23.366;2023-08-31T10:13:30;7.32;;;3.35;;
66593;SDS011;53450;42.584;23.366;2023-08-31T10:16:00;5.38;;;3.55;;
66593;SDS011;53450;42.584;23.366;2023-08-31T10:18:28;5.43;;;3.90;;
66593;SDS011;53450;42.584;23.366;2023-08-31T10:20:55;6.00;;;3.80;;
66593;SDS011;53450;42.584;23.366;2023-08-31T10:27:18;5.07;;;3.58;;
66593;SDS011;53450;42.584;23.366;2023-08-31T10:29:45;4.50;;;3.00;;
66593;SDS011;53450;42.584;23.366;2023-08-31T10:32:16;5.10;;;3.70;;
66593;SDS011;53450;42.584;23.366;2023-08-31T10:34:43;5.97;;;3.40;;
66593;SDS011;53450;42.584;23.366;2023-08-31T10:37:19;5.45;;;3.80;;
66593;SDS011;53450;42.584;23.366;2023-08-31T10:39:47;30.95;;;4.63;;
66593;SDS011;53450;42.584;23.366;2023-08-31T10:42:13;4.68;;;3.13;;
66593;SDS011;53450;42.584;23.366;2023-08-31T10:44:41;3.97;;;3.45;;
66593;SDS011;53450;42.584;23.366;2023-08-31T10:47:08;10.77;;;3.75;;
66593;SDS011;53450;42.584;23.366;2023-08-31T10:49:36;8.35;;;3.65;;
66593;SDS011;53450;42.584;23.366;2023-08-31T10:52:17;14.05;;;3.85;;
66593;SDS011;53450;42.584;23.366;2023-08-31T10:54:51;5.65;;;3.42;;
66593;SDS011;53450;42.584;23.366;2023-08-31T10:57:28;6.80;;;4.60;;
66593;SDS011;53450;42.584;23.366;2023-08-31T10:59:56;7.00;;;3.78;;
66593;SDS011;53450;42.584;23.366;2023-08-31T11:02:34;3.88;;;3.03;;
66593;SDS011;53450;42.584;23.366;2023-08-31T11:05:02;3.88;;;3.30;;
66593;SDS011;53450;42.584;23.366;2023-08-31T11:07:32;4.28;;;3.78;;
66593;SDS011;53450;42.584;23.366;2023-08-31T11:10:16;6.45;;;3.40;;
66593;SDS011;53450;42.584;23.366;2023-08-31T11:12:50;19.42;;;4.10;;
66593;SDS011;53450;42.584;23.366;2023-08-31T11:15:22;8.18;;;3.90;;
66593;SDS011;53450;42.584;23.366;2023-08-31T11:17:50;5.35;;;3.75;;
66593;SDS011;53450;42.584;23.366;2023-08-31T11:20:17;6.85;;;4.07;;
66593;SDS011;53450;42.584;23.366;2023-08-31T11:22:48;5.80;;;3.85;;
66593;SDS011;53450;42.584;23.366;2023-08-31T11:25:18;5.43;;;4.13;;
66593;SDS011;53450;42.584;23.366;2023-08-31T11:27:57;30.15;;;4.30;;
66593;SDS011;53450;42.584;23.366;2023-08-31T11:30:49;8.55;;;3.25;;
66593;SDS011;53450;42.584;23.366;2023-08-31T11:33:15;8.18;;;3.25;;
66593;SDS011;53450;42.584;23.366;2023-08-31T11:35:41;11.57;;;3.70;;
66593;SDS011;53450;42.584;23.366;2023-08-31T11:38:10;5.70;;;3.60;;
66593;SDS011;53450;42.584;23.366;2023-08-31T11:40:35;5.25;;;3.13;;
66593;SDS011;53450;42.584;23.366;2023-08-31T11:43:02;7.10;;;3.80;;
66593;SDS011;53450;42.584;23.366;2023-08-31T11:45:30;4.78;;;3.63;;
66593;SDS011;53450;42.584;23.366;2023-08-31T11:47:56;7.32;;;3.25;;
66593;SDS011;53450;42.584;23.366;2023-08-31T11:50:23;12.48;;;3.80;;
66593;SDS011;53450;42.584;23.366;2023-08-31T11:52:53;9.02;;;3.40;;
66593;SDS011;53450;42.584;23.366;2023-08-31T11:55:20;9.15;;;3.20;;
66593;SDS011;53450;42.584;23.366;2023-08-31T11:57:51;12.40;;;3.58;;
66593;SDS011;53450;42.584;23.366;2023-08-31T12:00:19;8.23;;;3.75;;
66593;SDS011;53450;42.584;23.366;2023-08-31T12:03:00;5.18;;;3.30;;
66593;SDS011;53450;42.584;23.366;2023-08-31T12:05:26;7.53;;;3.10;;
66593;SDS011;53450;42.584;23.366;2023-08-31T12:07:53;13.32;;;3.83;;
66593;SDS011;53450;42.584;23.366;2023-08-31T12:10:20;5.38;;;2.78;;
66593;SDS011;53450;42.584;23.366;2023-08-31T12:12:46;5.72;;;3.17;;
66593;SDS011;53450;42.584;23.366;2023-08-31T12:15:11;6.22;;;3.10;;
66593;SDS011;53450;42.584;23.366;2023-08-31T12:17:37;6.70;;;3.08;;
66593;SDS011;53450;42.584;23.366;2023-08-31T12:20:05;10.13;;;3.35;;
66593;SDS011;53450;42.584;23.366;2023-08-31T12:22:32;5.10;;;3.30;;
66593;SDS011;53450;42.584;23.366;2023-08-31T12:24:58;6.43;;;3.40;;
66593;SDS011;53450;42.584;23.366;2023-08-31T12:27:23;7.68;;;3.30;;
66593;SDS011;53450;42.584;23.366;2023-08-31T12:29:49;5.53;;;3.15;;
66593;SDS011;53450;42.584;23.366;2023-08-31T12:32:16;7.22;;;2.90;;
66593;SDS011;53450;42.584;23.366;2023-08-31T12:34:44;5.65;;;2.92;;
66593;SDS011;53450;42.584;23.366;2023-08-31T12:37:09;12.32;;;3.15;;
66593;SDS011;53450;42.584;23.366;2023-08-31T12:39:35;5.72;;;3.33;;
66593;SDS011;53450;42.584;23.366;2023-08-31T12:42:02;7.00;;;3.42;;
66593;SDS011;53450;42.584;23.366;2023-08-31T12:44:34;9.35;;;3.00;;
66593;SDS011;53450;42.584;23.366;2023-08-31T12:47:02;6.60;;;2.92;;
66593;SDS011;53450;42.584;23.366;2023-08-31T12:49:29;11.98;;;3.83;;
66593;SDS011;53450;42.584;23.366;2023-08-31T12:51:55;4.25;;;2.83;;
66593;SDS011;53450;42.584;23.366;2023-08-31T12:54:25;11.95;;;3.55;;
66593;SDS011;53450;42.584;23.366;2023-08-31T12:56:50;5.95;;;2.97;;
66593;SDS011;53450;42.584;23.366;2023-08-31T12:59:16;4.57;;;3.17;;
66593;SDS011;53450;42.584;23.366;2023-08-31T13:01:42;7.13;;;3.20;;
66593;SDS011;53450;42.584;23.366;2023-08-31T13:04:07;5.53;;;3.28;;
66593;SDS011;53450;42.584;23.366;2023-08-31T13:06:33;3.72;;;2.90;;
66593;SDS011;53450;42.584;23.366;2023-08-31T13:08:59;10.75;;;3.30;;
66593;SDS011;53450;42.584;23.366;2023-08-31T13:11:25;6.07;;;3.15;;
66593;SDS011;53450;42.584;23.366;2023-08-31T13:13:50;6.97;;;3.33;;
66593;SDS011;53450;42.584;23.366;2023-08-31T13:16:17;7.65;;;3.42;;
66593;SDS011;53450;42.584;23.366;2023-08-31T13:18:42;5.00;;;2.80;;
66593;SDS011;53450;42.584;23.366;2023-08-31T13:21:08;8.60;;;3.30;;
66593;SDS011;53450;42.584;23.366;2023-08-31T13:23:34;10.88;;;3.53;;
66593;SDS011;53450;42.584;23.366;2023-08-31T13:25:59;8.13;;;2.92;;
66593;SDS011;53450;42.584;23.366;2023-08-31T13:28:25;5.88;;;3.00;;
66593;SDS011;53450;42.584;23.366;2023-08-31T13:30:59;5.75;;;3.50;;
66593;SDS011;53450;42.584;23.366;2023-08-31T13:33:29;5.28;;;3.10;;
66593;SDS011;53450;42.584;23.366;2023-08-31T13:35:58;5.68;;;2.90;;
66593;SDS011;53450;42.584;23.366;2023-08-31T13:38:25;4.28;;;2.53;;
66593;SDS011;53450;42.584;23.366;2023-08-31T13:40:57;7.90;;;2.63;;
66593;SDS011;53450;42.584;23.366;2023-08-31T13:43:23;7.20;;;3.60;;
66593;SDS011;53450;42.584;23.366;2023-08-31T13:45:49;3.78;;;2.60;;
66593;SDS011;53450;42.584;23.366;2023-08-31T13:48:15;3.47;;;3.00;;
66593;SDS011;53450;42.584;23.366;2023-08-31T13:50:41;6.68;;;2.78;;
66593;SDS011;53450;42.584;23.366;2023-08-31T13:53:09;5.10;;;3.00;;
66593;SDS011;53450;42.584;23.366;2023-08-31T13:55:35;6.88;;;2.70;;
66593;SDS011;53450;42.584;23.366;2023-08-31T13:58:05;6.80;;;2.65;;
66593;SDS011;53450;42.584;23.366;2023-08-31T14:00:34;11.48;;;3.17;;
66593;SDS011;53450;42.584;23.366;2023-08-31T14:03:00;5.05;;;2.70;;
66593;SDS011;53450;42.584;23.366;2023-08-31T14:05:31;5.72;;;2.67;;
66593;SDS011;53450;42.584;23.366;2023-08-31T14:07:57;14.13;;;3.22;;
66593;SDS011;53450;42.584;23.366;2023-08-31T14:10:26;6.10;;;2.83;;
66593;SDS011;53450;42.584;23.366;2023-08-31T14:12:52;4.55;;;2.75;;
66593;SDS011;53450;42.584;23.366;2023-08-31T14:15:18;7.07;;;3.60;;
66593;SDS011;53450;42.584;23.366;2023-08-31T14:17:44;6.75;;;4.00;;
66593;SDS011;53450;42.584;23.366;2023-08-31T14:20:10;8.18;;;4.68;;
66593;SDS011;53450;42.584;23.366;2023-08-31T14:22:37;5.15;;;2.50;;
66593;SDS011;53450;42.584;23.366;2023-08-31T14:25:11;4.63;;;3.20;;
66593;SDS011;53450;42.584;23.366;2023-08-31T14:27:39;6.90;;;2.95;;
66593;SDS011;53450;42.584;23.366;2023-08-31T14:30:05;3.28;;;2.25;;
66593;SDS011;53450;42.584;23.366;2023-08-31T14:32:31;4.20;;;2.65;;
66593;SDS011;53450;42.584;23.366;2023-08-31T14:34:57;5.60;;;2.88;;
66593;SDS011;53450;42.584;23.366;2023-08-31T14:37:25;5.40;;;2.42;;
66593;SDS011;53450;42.584;23.366;2023-08-31T14:39:51;7.00;;;2.38;;
66593;SDS011;53450;42.584;23.366;2023-08-31T14:42:17;3.90;;;2.33;;
66593;SDS011;53450;42.584;23.366;2023-08-31T14:44:46;3.97;;;2.40;;
66593;SDS011;53450;42.584;23.366;2023-08-31T14:47:12;4.18;;;2.60;;
66593;SDS011;53450;42.584;23.366;2023-08-31T14:49:41;4.97;;;2.83;;
66593;SDS011;53450;42.584;23.366;2023-08-31T14:52:06;8.15;;;2.53;;
66593;SDS011;53450;42.584;23.366;2023-08-31T14:54:35;8.85;;;3.22;;
66593;SDS011;53450;42.584;23.366;2023-08-31T14:57:26;5.90;;;2.83;;
66593;SDS011;53450;42.584;23.366;2023-08-31T15:00:16;4.25;;;2.75;;
66593;SDS011;53450;42.584;23.366;2023-08-31T15:02:46;8.98;;;3.08;;
66593;SDS011;53450;42.584;23.366;2023-08-31T15:05:12;5.93;;;3.10;;
66593;SDS011;53450;42.584;23.366;2023-08-31T15:07:38;7.32;;;3.08;;